Pagrindinis puslapis
METAR-TAF:

METAR-TAF

Oro uostai :

Rostokas, Vokietija

platuma: 53-55N, ilguma: 012-17E, Aukštis: 40 m

Dabartinis oras

Ataskaita buvo paskelbta 55 minutes, ne 13:20 UTC
Vėjas 12 kt iš Rytų/Šiaurės Rytų su gūsio iki 22 kt
Temperatūra 18°C
Drėgmė 39%
Slėgis 1025 hPa
Matomumas 10 km arba daugiau
Mažai debesys ne aukštis 5200 ft
Su prošvaistėmis ne aukštis 7700 ft

METAR: ETNL 301320Z 07012G22KT 9999 FEW052 BKN077 18/04 Q1025 BLU

Laikas: 16:15 (14:15 UTC)

Prognozė

Ataskaita buvo paskelbta 4 valandos ir 15 minutes, ne 10:00 UTC
Prognozė galioja nuo 30 metu 11 UTC su 30 metu 23 UTC
Vėjas 10 kt iš Šiaurės Rytų su gūsio iki 20 kt
Matomumas 10 km arba daugiau
Išsisklaidę debesys ne aukštis 5000 ft
Tapsmas
nuo 30 metu 18 UTC su 30 metu 20 UTC
Vėjas 5 kt iš Šiaurės/Šiaurės Rytų
Matomumas 10 km arba daugiau
Mažai debesys ne aukštis 6000 ft

TAF: ETNL 301000Z 3011/3023 05010G20KT 9999 NSW SCT050 BECMG 3018/3020 02005KT 9999 NSW FEW060 BY ETGL

Orai ataskaitas ir orų prognozės (METAR, TAF).

turimą stotys yra geltonos ir raudonos taškus žemėlapyje.

Perkelti pele per norėdami pamatyti stoties vardą.

Tada spustelėkite, norėdami matyti oro stebėjimo ir prognozės.

Norėdami pakeisti žemėlapį: spustelėkite ant žalios mygtukų su juodo kryžiaus žemyn,; žalią mygtuką su brūkšneliu, jei norite nutolinti; arba žalių rodyklių gretimoms žemėlapius.


METAR-TAF: